sensor_id;sensor_type;location;lat;lon;timestamp;temperature;humidity
14301;DHT22;7234;59.306;18.024;2023-11-21T00:02:26;1.40;99.90
14301;DHT22;7234;59.306;18.024;2023-11-21T00:04:54;1.40;99.90
14301;DHT22;7234;59.306;18.024;2023-11-21T00:07:21;1.40;99.90
14301;DHT22;7234;59.306;18.024;2023-11-21T00:09:49;1.40;99.90
14301;DHT22;7234;59.306;18.024;2023-11-21T00:12:16;1.40;99.90
14301;DHT22;7234;59.306;18.024;2023-11-21T00:14:43;1.40;99.90
14301;DHT22;7234;59.306;18.024;2023-11-21T00:17:10;1.40;99.90
14301;DHT22;7234;59.306;18.024;2023-11-21T00:19:37;1.30;99.90
14301;DHT22;7234;59.306;18.024;2023-11-21T00:22:04;1.40;99.90
14301;DHT22;7234;59.306;18.024;2023-11-21T00:24:32;1.40;99.90
14301;DHT22;7234;59.306;18.024;2023-11-21T00:27:01;1.40;99.90
14301;DHT22;7234;59.306;18.024;2023-11-21T00:29:28;1.50;99.90
14301;DHT22;7234;59.306;18.024;2023-11-21T00:31:55;1.50;99.90
14301;DHT22;7234;59.306;18.024;2023-11-21T00:34:23;1.40;99.90
14301;DHT22;7234;59.306;18.024;2023-11-21T00:36:50;1.50;99.90
14301;DHT22;7234;59.306;18.024;2023-11-21T00:39:17;1.50;99.90
14301;DHT22;7234;59.306;18.024;2023-11-21T00:41:44;1.50;99.90
14301;DHT22;7234;59.306;18.024;2023-11-21T00:44:12;1.50;99.90
14301;DHT22;7234;59.306;18.024;2023-11-21T00:46:39;1.50;99.90
14301;DHT22;7234;59.306;18.024;2023-11-21T00:49:06;1.50;99.90
14301;DHT22;7234;59.306;18.024;2023-11-21T00:51:33;1.50;99.90
14301;DHT22;7234;59.306;18.024;2023-11-21T00:54:01;1.50;99.90
14301;DHT22;7234;59.306;18.024;2023-11-21T00:56:28;1.60;99.90
14301;DHT22;7234;59.306;18.024;2023-11-21T00:58:55;1.50;99.90
14301;DHT22;7234;59.306;18.024;2023-11-21T01:01:24;1.50;99.90
14301;DHT22;7234;59.306;18.024;2023-11-21T01:03:51;1.50;99.90
14301;DHT22;7234;59.306;18.024;2023-11-21T01:06:18;1.60;99.90
14301;DHT22;7234;59.306;18.024;2023-11-21T01:08:45;1.50;99.90
14301;DHT22;7234;59.306;18.024;2023-11-21T01:11:12;1.50;99.90
14301;DHT22;7234;59.306;18.024;2023-11-21T01:13:40;1.60;99.90
14301;DHT22;7234;59.306;18.024;2023-11-21T01:16:08;1.70;99.90
14301;DHT22;7234;59.306;18.024;2023-11-21T01:18:36;1.60;99.90
14301;DHT22;7234;59.306;18.024;2023-11-21T01:21:04;1.60;99.90
14301;DHT22;7234;59.306;18.024;2023-11-21T01:23:31;1.60;99.90
14301;DHT22;7234;59.306;18.024;2023-11-21T01:25:58;1.60;99.90
14301;DHT22;7234;59.306;18.024;2023-11-21T01:28:25;1.60;99.90
14301;DHT22;7234;59.306;18.024;2023-11-21T01:30:52;1.60;99.90
14301;DHT22;7234;59.306;18.024;2023-11-21T01:33:22;1.60;99.90
14301;DHT22;7234;59.306;18.024;2023-11-21T01:35:52;1.60;99.90
14301;DHT22;7234;59.306;18.024;2023-11-21T01:38:20;1.60;99.90
14301;DHT22;7234;59.306;18.024;2023-11-21T01:40:47;1.70;99.90
14301;DHT22;7234;59.306;18.024;2023-11-21T01:43:14;1.70;99.90
14301;DHT22;7234;59.306;18.024;2023-11-21T01:45:42;1.70;99.90
14301;DHT22;7234;59.306;18.024;2023-11-21T01:48:11;1.70;99.90
14301;DHT22;7234;59.306;18.024;2023-11-21T01:50:38;1.70;99.90
14301;DHT22;7234;59.306;18.024;2023-11-21T01:53:07;1.80;99.90
14301;DHT22;7234;59.306;18.024;2023-11-21T01:55:34;1.70;99.90
14301;DHT22;7234;59.306;18.024;2023-11-21T01:58:02;1.70;99.90
14301;DHT22;7234;59.306;18.024;2023-11-21T02:00:29;1.70;99.90
14301;DHT22;7234;59.306;18.024;2023-11-21T02:02:57;1.80;99.90
14301;DHT22;7234;59.306;18.024;2023-11-21T02:05:25;1.80;99.90
14301;DHT22;7234;59.306;18.024;2023-11-21T02:07:52;1.70;99.90
14301;DHT22;7234;59.306;18.024;2023-11-21T02:10:21;1.70;99.90
14301;DHT22;7234;59.306;18.024;2023-11-21T02:12:49;1.70;99.90
14301;DHT22;7234;59.306;18.024;2023-11-21T02:15:17;1.80;99.90
14301;DHT22;7234;59.306;18.024;2023-11-21T02:17:46;1.70;99.90
14301;DHT22;7234;59.306;18.024;2023-11-21T02:20:17;1.70;99.90
14301;DHT22;7234;59.306;18.024;2023-11-21T02:22:50;1.80;99.90
14301;DHT22;7234;59.306;18.024;2023-11-21T02:25:18;1.70;99.90
14301;DHT22;7234;59.306;18.024;2023-11-21T02:27:45;1.80;99.90
14301;DHT22;7234;59.306;18.024;2023-11-21T02:30:14;1.60;99.90
14301;DHT22;7234;59.306;18.024;2023-11-21T02:32:41;1.60;99.90
14301;DHT22;7234;59.306;18.024;2023-11-21T02:35:09;1.80;99.90
14301;DHT22;7234;59.306;18.024;2023-11-21T02:37:37;1.80;99.90
14301;DHT22;7234;59.306;18.024;2023-11-21T02:40:09;1.70;99.90
14301;DHT22;7234;59.306;18.024;2023-11-21T02:42:38;1.70;99.90
14301;DHT22;7234;59.306;18.024;2023-11-21T02:45:06;1.70;99.90
14301;DHT22;7234;59.306;18.024;2023-11-21T02:47:34;1.70;99.90
14301;DHT22;7234;59.306;18.024;2023-11-21T02:50:01;1.70;99.90
14301;DHT22;7234;59.306;18.024;2023-11-21T02:52:28;1.70;99.90
14301;DHT22;7234;59.306;18.024;2023-11-21T02:54:55;1.70;99.90
14301;DHT22;7234;59.306;18.024;2023-11-21T02:57:23;1.80;99.90
14301;DHT22;7234;59.306;18.024;2023-11-21T02:59:50;1.70;99.90
14301;DHT22;7234;59.306;18.024;2023-11-21T03:02:17;1.70;99.90
14301;DHT22;7234;59.306;18.024;2023-11-21T03:04:44;1.70;99.90
14301;DHT22;7234;59.306;18.024;2023-11-21T03:07:11;1.70;99.90
14301;DHT22;7234;59.306;18.024;2023-11-21T03:09:38;1.70;99.90
14301;DHT22;7234;59.306;18.024;2023-11-21T03:12:05;1.70;99.90
14301;DHT22;7234;59.306;18.024;2023-11-21T03:14:34;1.70;99.90
14301;DHT22;7234;59.306;18.024;2023-11-21T03:17:01;1.70;99.90
14301;DHT22;7234;59.306;18.024;2023-11-21T03:19:30;1.70;99.90
14301;DHT22;7234;59.306;18.024;2023-11-21T03:21:57;1.70;99.90
14301;DHT22;7234;59.306;18.024;2023-11-21T03:24:24;1.80;99.90
14301;DHT22;7234;59.306;18.024;2023-11-21T03:26:52;1.70;99.90
14301;DHT22;7234;59.306;18.024;2023-11-21T03:29:19;1.80;99.90
14301;DHT22;7234;59.306;18.024;2023-11-21T03:31:47;1.70;99.90
14301;DHT22;7234;59.306;18.024;2023-11-21T03:34:23;1.70;99.90
14301;DHT22;7234;59.306;18.024;2023-11-21T03:36:50;1.70;99.90
14301;DHT22;7234;59.306;18.024;2023-11-21T03:39:17;1.70;99.90
14301;DHT22;7234;59.306;18.024;2023-11-21T03:41:44;1.70;99.90
14301;DHT22;7234;59.306;18.024;2023-11-21T03:44:11;1.80;99.90
14301;DHT22;7234;59.306;18.024;2023-11-21T03:46:38;1.70;99.90
14301;DHT22;7234;59.306;18.024;2023-11-21T03:49:06;1.90;99.90
14301;DHT22;7234;59.306;18.024;2023-11-21T03:51:34;1.80;99.90
14301;DHT22;7234;59.306;18.024;2023-11-21T03:54:01;1.80;99.90
14301;DHT22;7234;59.306;18.024;2023-11-21T03:56:28;1.80;99.90
14301;DHT22;7234;59.306;18.024;2023-11-21T03:58:55;1.90;99.90
14301;DHT22;7234;59.306;18.024;2023-11-21T04:01:23;1.80;99.90
14301;DHT22;7234;59.306;18.024;2023-11-21T04:03:50;1.80;99.90
14301;DHT22;7234;59.306;18.024;2023-11-21T04:06:19;1.80;99.90
14301;DHT22;7234;59.306;18.024;2023-11-21T04:08:46;1.80;99.90
14301;DHT22;7234;59.306;18.024;2023-11-21T04:11:13;1.80;99.90
14301;DHT22;7234;59.306;18.024;2023-11-21T04:13:41;1.80;99.90
14301;DHT22;7234;59.306;18.024;2023-11-21T04:16:09;1.80;99.90
14301;DHT22;7234;59.306;18.024;2023-11-21T04:18:36;1.90;99.90
14301;DHT22;7234;59.306;18.024;2023-11-21T04:21:04;2.00;99.90
14301;DHT22;7234;59.306;18.024;2023-11-21T04:23:35;1.90;99.90
14301;DHT22;7234;59.306;18.024;2023-11-21T04:26:02;1.90;99.90
14301;DHT22;7234;59.306;18.024;2023-11-21T04:28:31;2.00;99.90
14301;DHT22;7234;59.306;18.024;2023-11-21T04:31:00;1.90;99.90
14301;DHT22;7234;59.306;18.024;2023-11-21T04:33:27;1.90;99.90
14301;DHT22;7234;59.306;18.024;2023-11-21T04:35:54;2.10;99.90
14301;DHT22;7234;59.306;18.024;2023-11-21T04:38:21;1.90;99.90
14301;DHT22;7234;59.306;18.024;2023-11-21T04:40:50;1.90;99.90
14301;DHT22;7234;59.306;18.024;2023-11-21T04:43:17;2.00;99.90
14301;DHT22;7234;59.306;18.024;2023-11-21T04:45:44;2.10;99.90
14301;DHT22;7234;59.306;18.024;2023-11-21T04:48:11;2.00;99.90
14301;DHT22;7234;59.306;18.024;2023-11-21T04:50:38;2.00;99.90
14301;DHT22;7234;59.306;18.024;2023-11-21T04:53:05;2.00;99.90
14301;DHT22;7234;59.306;18.024;2023-11-21T04:55:32;2.00;99.90
14301;DHT22;7234;59.306;18.024;2023-11-21T04:58:00;2.00;99.90
14301;DHT22;7234;59.306;18.024;2023-11-21T05:00:27;2.20;99.90
14301;DHT22;7234;59.306;18.024;2023-11-21T05:02:54;2.20;99.90
14301;DHT22;7234;59.306;18.024;2023-11-21T05:05:21;2.10;99.90
14301;DHT22;7234;59.306;18.024;2023-11-21T05:07:48;2.00;99.90
14301;DHT22;7234;59.306;18.024;2023-11-21T05:10:15;2.10;99.90
14301;DHT22;7234;59.306;18.024;2023-11-21T05:12:42;2.10;99.90
14301;DHT22;7234;59.306;18.024;2023-11-21T05:15:14;2.10;99.90
14301;DHT22;7234;59.306;18.024;2023-11-21T05:17:41;2.10;99.90
14301;DHT22;7234;59.306;18.024;2023-11-21T05:20:12;2.10;99.90
14301;DHT22;7234;59.306;18.024;2023-11-21T05:22:40;2.20;99.90
14301;DHT22;7234;59.306;18.024;2023-11-21T05:25:08;2.10;99.90
14301;DHT22;7234;59.306;18.024;2023-11-21T05:27:35;2.10;99.90
14301;DHT22;7234;59.306;18.024;2023-11-21T05:30:02;2.10;99.90
14301;DHT22;7234;59.306;18.024;2023-11-21T05:32:32;2.10;99.90
14301;DHT22;7234;59.306;18.024;2023-11-21T05:34:59;2.20;99.90
14301;DHT22;7234;59.306;18.024;2023-11-21T05:37:26;2.10;99.90
14301;DHT22;7234;59.306;18.024;2023-11-21T05:39:56;2.10;99.90
14301;DHT22;7234;59.306;18.024;2023-11-21T05:42:23;2.10;99.90
14301;DHT22;7234;59.306;18.024;2023-11-21T05:44:50;2.10;99.90
14301;DHT22;7234;59.306;18.024;2023-11-21T05:47:17;2.10;99.90
14301;DHT22;7234;59.306;18.024;2023-11-21T05:49:46;2.10;99.90
14301;DHT22;7234;59.306;18.024;2023-11-21T05:52:16;2.10;99.90
14301;DHT22;7234;59.306;18.024;2023-11-21T05:54:43;2.10;99.90
14301;DHT22;7234;59.306;18.024;2023-11-21T05:57:10;2.30;99.90
14301;DHT22;7234;59.306;18.024;2023-11-21T05:59:37;2.10;99.90
14301;DHT22;7234;59.306;18.024;2023-11-21T06:02:04;2.10;99.90
14301;DHT22;7234;59.306;18.024;2023-11-21T06:04:31;2.10;99.90
14301;DHT22;7234;59.306;18.024;2023-11-21T06:06:59;2.10;99.90
14301;DHT22;7234;59.306;18.024;2023-11-21T06:09:28;2.10;99.90
14301;DHT22;7234;59.306;18.024;2023-11-21T06:11:55;2.10;99.90
14301;DHT22;7234;59.306;18.024;2023-11-21T06:14:22;2.10;99.90
14301;DHT22;7234;59.306;18.024;2023-11-21T06:16:49;2.10;99.90
14301;DHT22;7234;59.306;18.024;2023-11-21T06:19:18;2.10;99.90
14301;DHT22;7234;59.306;18.024;2023-11-21T06:21:46;2.30;99.90
14301;DHT22;7234;59.306;18.024;2023-11-21T06:24:17;2.10;99.90
14301;DHT22;7234;59.306;18.024;2023-11-21T06:26:46;2.30;99.90
14301;DHT22;7234;59.306;18.024;2023-11-21T06:29:14;2.20;99.90
14301;DHT22;7234;59.306;18.024;2023-11-21T06:31:41;2.20;99.90
14301;DHT22;7234;59.306;18.024;2023-11-21T06:34:09;2.20;99.90
14301;DHT22;7234;59.306;18.024;2023-11-21T06:36:36;2.30;99.90
14301;DHT22;7234;59.306;18.024;2023-11-21T06:39:03;2.20;99.90
14301;DHT22;7234;59.306;18.024;2023-11-21T06:41:35;2.30;99.90
14301;DHT22;7234;59.306;18.024;2023-11-21T06:44:04;2.20;99.90
14301;DHT22;7234;59.306;18.024;2023-11-21T06:46:31;2.30;99.90
14301;DHT22;7234;59.306;18.024;2023-11-21T06:48:59;2.30;99.90
14301;DHT22;7234;59.306;18.024;2023-11-21T06:51:25;2.30;99.90
14301;DHT22;7234;59.306;18.024;2023-11-21T06:53:53;2.30;99.90
14301;DHT22;7234;59.306;18.024;2023-11-21T06:56:20;2.30;99.90
14301;DHT22;7234;59.306;18.024;2023-11-21T06:58:48;2.30;99.90
14301;DHT22;7234;59.306;18.024;2023-11-21T07:01:15;2.40;99.90
14301;DHT22;7234;59.306;18.024;2023-11-21T07:03:42;2.40;99.90
14301;DHT22;7234;59.306;18.024;2023-11-21T07:06:09;2.40;99.90
14301;DHT22;7234;59.306;18.024;2023-11-21T07:08:37;2.40;99.90
14301;DHT22;7234;59.306;18.024;2023-11-21T07:11:04;2.40;99.90
14301;DHT22;7234;59.306;18.024;2023-11-21T07:13:31;2.40;99.90
14301;DHT22;7234;59.306;18.024;2023-11-21T07:15:59;2.40;99.90
14301;DHT22;7234;59.306;18.024;2023-11-21T07:18:26;2.40;99.90
14301;DHT22;7234;59.306;18.024;2023-11-21T07:20:54;2.40;99.90
14301;DHT22;7234;59.306;18.024;2023-11-21T07:23:21;2.50;99.90
14301;DHT22;7234;59.306;18.024;2023-11-21T07:25:48;2.40;99.90
14301;DHT22;7234;59.306;18.024;2023-11-21T07:28:15;2.40;99.90
14301;DHT22;7234;59.306;18.024;2023-11-21T07:30:42;2.50;99.90
14301;DHT22;7234;59.306;18.024;2023-11-21T07:33:11;2.50;99.90
14301;DHT22;7234;59.306;18.024;2023-11-21T07:35:38;2.50;99.90
14301;DHT22;7234;59.306;18.024;2023-11-21T07:38:04;2.60;99.90
14301;DHT22;7234;59.306;18.024;2023-11-21T07:40:31;2.50;99.90
14301;DHT22;7234;59.306;18.024;2023-11-21T07:42:58;2.50;99.90
14301;DHT22;7234;59.306;18.024;2023-11-21T07:45:26;2.50;99.90
14301;DHT22;7234;59.306;18.024;2023-11-21T07:47:54;2.50;99.90
14301;DHT22;7234;59.306;18.024;2023-11-21T07:50:23;2.60;99.90
14301;DHT22;7234;59.306;18.024;2023-11-21T07:52:49;2.60;99.90
14301;DHT22;7234;59.306;18.024;2023-11-21T07:55:17;2.60;99.90
14301;DHT22;7234;59.306;18.024;2023-11-21T07:57:43;2.60;99.90
14301;DHT22;7234;59.306;18.024;2023-11-21T08:00:12;2.60;99.90
14301;DHT22;7234;59.306;18.024;2023-11-21T08:02:41;2.60;99.90
14301;DHT22;7234;59.306;18.024;2023-11-21T08:05:11;2.50;99.90
14301;DHT22;7234;59.306;18.024;2023-11-21T08:07:40;2.60;99.90
14301;DHT22;7234;59.306;18.024;2023-11-21T08:10:08;2.50;99.90
14301;DHT22;7234;59.306;18.024;2023-11-21T08:12:36;2.50;99.90
14301;DHT22;7234;59.306;18.024;2023-11-21T08:15:05;2.50;99.90
14301;DHT22;7234;59.306;18.024;2023-11-21T08:17:33;2.50;99.90
14301;DHT22;7234;59.306;18.024;2023-11-21T08:20:00;2.50;99.90
14301;DHT22;7234;59.306;18.024;2023-11-21T08:22:29;2.50;99.90
14301;DHT22;7234;59.306;18.024;2023-11-21T08:24:57;2.50;99.90
14301;DHT22;7234;59.306;18.024;2023-11-21T08:27:24;2.60;99.90
14301;DHT22;7234;59.306;18.024;2023-11-21T08:29:51;2.40;99.90
14301;DHT22;7234;59.306;18.024;2023-11-21T08:32:18;2.50;99.90
14301;DHT22;7234;59.306;18.024;2023-11-21T08:34:45;2.50;99.90
14301;DHT22;7234;59.306;18.024;2023-11-21T08:37:16;2.60;99.90
14301;DHT22;7234;59.306;18.024;2023-11-21T08:39:43;2.60;99.90
14301;DHT22;7234;59.306;18.024;2023-11-21T08:42:15;2.60;99.90
14301;DHT22;7234;59.306;18.024;2023-11-21T08:44:42;2.50;99.90
14301;DHT22;7234;59.306;18.024;2023-11-21T08:47:09;2.40;99.90
14301;DHT22;7234;59.306;18.024;2023-11-21T08:49:36;2.40;99.90
14301;DHT22;7234;59.306;18.024;2023-11-21T08:52:04;2.40;99.90
14301;DHT22;7234;59.306;18.024;2023-11-21T08:54:32;2.40;99.90
14301;DHT22;7234;59.306;18.024;2023-11-21T08:56:59;2.40;99.90
14301;DHT22;7234;59.306;18.024;2023-11-21T08:59:28;2.40;99.90
14301;DHT22;7234;59.306;18.024;2023-11-21T09:01:55;2.40;99.90
14301;DHT22;7234;59.306;18.024;2023-11-21T09:04:22;2.40;99.90
14301;DHT22;7234;59.306;18.024;2023-11-21T09:06:49;2.30;99.90
14301;DHT22;7234;59.306;18.024;2023-11-21T09:09:17;2.40;99.90
14301;DHT22;7234;59.306;18.024;2023-11-21T09:11:46;2.40;99.90
14301;DHT22;7234;59.306;18.024;2023-11-21T09:14:14;2.40;99.90
14301;DHT22;7234;59.306;18.024;2023-11-21T09:16:45;2.30;99.90
14301;DHT22;7234;59.306;18.024;2023-11-21T09:19:12;2.30;99.90
14301;DHT22;7234;59.306;18.024;2023-11-21T09:21:41;2.30;99.90
14301;DHT22;7234;59.306;18.024;2023-11-21T09:24:10;2.30;99.90
14301;DHT22;7234;59.306;18.024;2023-11-21T09:26:40;2.40;99.90
14301;DHT22;7234;59.306;18.024;2023-11-21T09:29:07;2.40;99.90
14301;DHT22;7234;59.306;18.024;2023-11-21T09:31:35;2.40;99.90
14301;DHT22;7234;59.306;18.024;2023-11-21T09:34:03;2.40;99.90
14301;DHT22;7234;59.306;18.024;2023-11-21T09:36:32;2.50;99.90
14301;DHT22;7234;59.306;18.024;2023-11-21T09:38:59;2.50;99.90
14301;DHT22;7234;59.306;18.024;2023-11-21T09:41:32;2.50;99.90
14301;DHT22;7234;59.306;18.024;2023-11-21T09:44:02;2.50;99.90
14301;DHT22;7234;59.306;18.024;2023-11-21T09:46:33;2.60;99.90
14301;DHT22;7234;59.306;18.024;2023-11-21T09:49:04;2.60;99.90
14301;DHT22;7234;59.306;18.024;2023-11-21T09:51:34;2.70;99.90
14301;DHT22;7234;59.306;18.024;2023-11-21T09:54:05;2.70;99.90
14301;DHT22;7234;59.306;18.024;2023-11-21T09:56:34;2.70;99.90
14301;DHT22;7234;59.306;18.024;2023-11-21T09:59:02;2.70;99.90
14301;DHT22;7234;59.306;18.024;2023-11-21T10:01:35;2.90;99.90
14301;DHT22;7234;59.306;18.024;2023-11-21T10:04:05;2.70;99.90
14301;DHT22;7234;59.306;18.024;2023-11-21T10:06:38;2.70;99.90
14301;DHT22;7234;59.306;18.024;2023-11-21T10:09:06;2.80;99.90
14301;DHT22;7234;59.306;18.024;2023-11-21T10:11:39;2.90;99.90
14301;DHT22;7234;59.306;18.024;2023-11-21T10:14:08;2.80;99.90
14301;DHT22;7234;59.306;18.024;2023-11-21T10:16:39;2.90;99.90
14301;DHT22;7234;59.306;18.024;2023-11-21T10:19:09;2.90;99.90
14301;DHT22;7234;59.306;18.024;2023-11-21T10:21:42;2.90;99.90
14301;DHT22;7234;59.306;18.024;2023-11-21T10:24:09;2.90;99.90
14301;DHT22;7234;59.306;18.024;2023-11-21T10:26:38;2.90;99.90
14301;DHT22;7234;59.306;18.024;2023-11-21T10:29:05;2.90;99.90
14301;DHT22;7234;59.306;18.024;2023-11-21T10:31:32;3.00;99.90
14301;DHT22;7234;59.306;18.024;2023-11-21T10:34:14;2.80;99.90
14301;DHT22;7234;59.306;18.024;2023-11-21T10:36:41;2.80;99.90
14301;DHT22;7234;59.306;18.024;2023-11-21T10:39:08;2.80;99.90
14301;DHT22;7234;59.306;18.024;2023-11-21T10:41:36;2.80;99.90
14301;DHT22;7234;59.306;18.024;2023-11-21T10:44:04;2.80;99.90
14301;DHT22;7234;59.306;18.024;2023-11-21T10:46:33;2.80;99.90
14301;DHT22;7234;59.306;18.024;2023-11-21T10:49:00;2.90;99.90
14301;DHT22;7234;59.306;18.024;2023-11-21T10:51:29;2.80;99.90
14301;DHT22;7234;59.306;18.024;2023-11-21T10:53:56;2.90;99.90
14301;DHT22;7234;59.306;18.024;2023-11-21T10:56:26;2.80;99.90
14301;DHT22;7234;59.306;18.024;2023-11-21T10:58:56;2.80;99.90
14301;DHT22;7234;59.306;18.024;2023-11-21T11:01:26;2.80;99.90
14301;DHT22;7234;59.306;18.024;2023-11-21T11:03:55;3.00;99.90
14301;DHT22;7234;59.306;18.024;2023-11-21T11:06:23;2.90;99.90
14301;DHT22;7234;59.306;18.024;2023-11-21T11:08:54;2.90;99.90
14301;DHT22;7234;59.306;18.024;2023-11-21T11:11:23;2.90;99.90
14301;DHT22;7234;59.306;18.024;2023-11-21T11:13:50;2.90;99.90
14301;DHT22;7234;59.306;18.024;2023-11-21T11:16:19;2.80;99.90
14301;DHT22;7234;59.306;18.024;2023-11-21T11:18:47;2.80;99.90
14301;DHT22;7234;59.306;18.024;2023-11-21T11:21:27;2.80;99.90
14301;DHT22;7234;59.306;18.024;2023-11-21T11:24:11;2.80;99.90
14301;DHT22;7234;59.306;18.024;2023-11-21T11:26:47;2.90;99.90
14301;DHT22;7234;59.306;18.024;2023-11-21T11:29:24;2.90;99.90
14301;DHT22;7234;59.306;18.024;2023-11-21T11:32:03;2.90;99.90
14301;DHT22;7234;59.306;18.024;2023-11-21T11:34:35;3.00;99.90
14301;DHT22;7234;59.306;18.024;2023-11-21T11:37:06;2.90;99.90
14301;DHT22;7234;59.306;18.024;2023-11-21T11:39:37;3.00;99.90
14301;DHT22;7234;59.306;18.024;2023-11-21T11:42:07;3.00;99.90
14301;DHT22;7234;59.306;18.024;2023-11-21T11:44:51;2.90;99.90
14301;DHT22;7234;59.306;18.024;2023-11-21T11:47:22;2.90;99.90
14301;DHT22;7234;59.306;18.024;2023-11-21T11:50:00;2.90;99.90
14301;DHT22;7234;59.306;18.024;2023-11-21T11:52:33;3.10;99.90
14301;DHT22;7234;59.306;18.024;2023-11-21T11:55:02;3.00;99.90
14301;DHT22;7234;59.306;18.024;2023-11-21T11:57:30;3.00;99.90
14301;DHT22;7234;59.306;18.024;2023-11-21T12:00:10;3.10;99.90
14301;DHT22;7234;59.306;18.024;2023-11-21T12:02:38;2.90;99.90
14301;DHT22;7234;59.306;18.024;2023-11-21T12:05:10;3.00;99.90
14301;DHT22;7234;59.306;18.024;2023-11-21T12:07:45;2.90;99.90
14301;DHT22;7234;59.306;18.024;2023-11-21T12:10:16;2.90;99.90
14301;DHT22;7234;59.306;18.024;2023-11-21T12:12:45;2.90;99.90
14301;DHT22;7234;59.306;18.024;2023-11-21T12:15:13;2.90;99.90
14301;DHT22;7234;59.306;18.024;2023-11-21T12:17:41;3.00;99.90
14301;DHT22;7234;59.306;18.024;2023-11-21T12:20:09;2.80;99.90
14301;DHT22;7234;59.306;18.024;2023-11-21T12:22:44;2.90;99.90
14301;DHT22;7234;59.306;18.024;2023-11-21T12:25:14;2.90;99.90
14301;DHT22;7234;59.306;18.024;2023-11-21T12:27:44;2.90;99.90
14301;DHT22;7234;59.306;18.024;2023-11-21T12:30:13;2.90;99.90
14301;DHT22;7234;59.306;18.024;2023-11-21T12:32:41;2.90;99.90
14301;DHT22;7234;59.306;18.024;2023-11-21T12:35:09;3.10;99.90
14301;DHT22;7234;59.306;18.024;2023-11-21T12:37:37;3.00;99.90
14301;DHT22;7234;59.306;18.024;2023-11-21T12:40:06;3.00;99.90
14301;DHT22;7234;59.306;18.024;2023-11-21T12:42:39;3.10;99.90
14301;DHT22;7234;59.306;18.024;2023-11-21T12:45:08;3.20;99.90
14301;DHT22;7234;59.306;18.024;2023-11-21T12:47:40;3.30;99.90
14301;DHT22;7234;59.306;18.024;2023-11-21T12:50:08;3.30;99.90
14301;DHT22;7234;59.306;18.024;2023-11-21T12:52:41;3.30;99.90
14301;DHT22;7234;59.306;18.024;2023-11-21T12:55:10;3.30;99.90
14301;DHT22;7234;59.306;18.024;2023-11-21T12:57:43;3.20;99.90
14301;DHT22;7234;59.306;18.024;2023-11-21T13:00:12;3.10;99.90
14301;DHT22;7234;59.306;18.024;2023-11-21T13:02:53;2.90;99.90
14301;DHT22;7234;59.306;18.024;2023-11-21T13:05:29;2.90;99.90
14301;DHT22;7234;59.306;18.024;2023-11-21T13:07:58;2.80;99.90
14301;DHT22;7234;59.306;18.024;2023-11-21T13:10:29;2.80;99.90
14301;DHT22;7234;59.306;18.024;2023-11-21T13:12:59;2.70;99.90
14301;DHT22;7234;59.306;18.024;2023-11-21T13:15:27;2.80;99.90
14301;DHT22;7234;59.306;18.024;2023-11-21T13:17:57;2.70;99.90
14301;DHT22;7234;59.306;18.024;2023-11-21T13:20:24;2.70;99.90
14301;DHT22;7234;59.306;18.024;2023-11-21T13:22:52;2.60;99.90
14301;DHT22;7234;59.306;18.024;2023-11-21T13:25:23;2.60;99.90
14301;DHT22;7234;59.306;18.024;2023-11-21T13:27:53;2.50;99.90
14301;DHT22;7234;59.306;18.024;2023-11-21T13:30:23;2.50;99.90
14301;DHT22;7234;59.306;18.024;2023-11-21T13:32:53;2.50;99.90
14301;DHT22;7234;59.306;18.024;2023-11-21T13:35:23;2.50;99.90
14301;DHT22;7234;59.306;18.024;2023-11-21T13:37:57;2.50;99.90
14301;DHT22;7234;59.306;18.024;2023-11-21T13:40:26;2.50;99.90
14301;DHT22;7234;59.306;18.024;2023-11-21T13:42:53;2.40;99.90
14301;DHT22;7234;59.306;18.024;2023-11-21T13:45:22;2.30;99.90
14301;DHT22;7234;59.306;18.024;2023-11-21T13:47:51;2.30;99.90
14301;DHT22;7234;59.306;18.024;2023-11-21T13:50:24;2.20;99.90
14301;DHT22;7234;59.306;18.024;2023-11-21T13:52:56;2.30;99.90
14301;DHT22;7234;59.306;18.024;2023-11-21T13:55:23;2.20;99.90
14301;DHT22;7234;59.306;18.024;2023-11-21T13:57:51;2.10;99.90
14301;DHT22;7234;59.306;18.024;2023-11-21T14:00:21;2.10;99.90
14301;DHT22;7234;59.306;18.024;2023-11-21T14:03:11;2.00;99.90
14301;DHT22;7234;59.306;18.024;2023-11-21T14:05:44;2.00;99.90
14301;DHT22;7234;59.306;18.024;2023-11-21T14:08:17;2.10;99.90
14301;DHT22;7234;59.306;18.024;2023-11-21T14:10:46;1.90;99.90
14301;DHT22;7234;59.306;18.024;2023-11-21T14:13:19;1.90;99.90
14301;DHT22;7234;59.306;18.024;2023-11-21T14:15:50;1.90;99.90
14301;DHT22;7234;59.306;18.024;2023-11-21T14:18:23;1.80;99.90
14301;DHT22;7234;59.306;18.024;2023-11-21T14:20:56;1.80;99.90
14301;DHT22;7234;59.306;18.024;2023-11-21T14:23:23;1.90;99.90
14301;DHT22;7234;59.306;18.024;2023-11-21T14:25:50;1.80;99.90
14301;DHT22;7234;59.306;18.024;2023-11-21T14:28:17;1.70;99.90
14301;DHT22;7234;59.306;18.024;2023-11-21T14:30:45;1.80;99.90
14301;DHT22;7234;59.306;18.024;2023-11-21T14:33:13;1.70;99.90
14301;DHT22;7234;59.306;18.024;2023-11-21T14:35:42;1.70;99.90
14301;DHT22;7234;59.306;18.024;2023-11-21T14:38:11;1.80;99.90
14301;DHT22;7234;59.306;18.024;2023-11-21T14:40:39;1.70;99.90
14301;DHT22;7234;59.306;18.024;2023-11-21T14:43:08;1.60;99.90
14301;DHT22;7234;59.306;18.024;2023-11-21T14:45:35;1.60;99.90
14301;DHT22;7234;59.306;18.024;2023-11-21T14:48:03;1.60;99.90
14301;DHT22;7234;59.306;18.024;2023-11-21T14:50:42;1.60;99.90
14301;DHT22;7234;59.306;18.024;2023-11-21T14:53:17;1.60;99.90
14301;DHT22;7234;59.306;18.024;2023-11-21T14:56:00;1.60;99.90
14301;DHT22;7234;59.306;18.024;2023-11-21T14:58:29;1.50;99.90
14301;DHT22;7234;59.306;18.024;2023-11-21T15:00:56;1.50;99.90
14301;DHT22;7234;59.306;18.024;2023-11-21T15:03:25;1.40;99.90
14301;DHT22;7234;59.306;18.024;2023-11-21T15:06:10;1.40;99.90
14301;DHT22;7234;59.306;18.024;2023-11-21T15:08:52;1.40;99.90
14301;DHT22;7234;59.306;18.024;2023-11-21T15:11:24;1.50;99.90
14301;DHT22;7234;59.306;18.024;2023-11-21T15:13:56;1.40;99.90
14301;DHT22;7234;59.306;18.024;2023-11-21T15:16:24;1.30;99.90
14301;DHT22;7234;59.306;18.024;2023-11-21T15:18:52;1.30;99.90
14301;DHT22;7234;59.306;18.024;2023-11-21T15:21:21;1.30;99.90
14301;DHT22;7234;59.306;18.024;2023-11-21T15:23:50;1.30;99.90
14301;DHT22;7234;59.306;18.024;2023-11-21T15:26:17;1.40;99.90
14301;DHT22;7234;59.306;18.024;2023-11-21T15:28:44;1.30;99.90
14301;DHT22;7234;59.306;18.024;2023-11-21T15:31:11;1.40;99.90
14301;DHT22;7234;59.306;18.024;2023-11-21T15:33:38;1.40;99.90
14301;DHT22;7234;59.306;18.024;2023-11-21T15:36:06;1.40;99.90
14301;DHT22;7234;59.306;18.024;2023-11-21T15:38:37;1.40;99.90
14301;DHT22;7234;59.306;18.024;2023-11-21T15:41:05;1.40;99.90
14301;DHT22;7234;59.306;18.024;2023-11-21T15:43:35;1.40;99.90
14301;DHT22;7234;59.306;18.024;2023-11-21T15:46:02;1.40;99.90
14301;DHT22;7234;59.306;18.024;2023-11-21T15:48:33;1.40;99.90
14301;DHT22;7234;59.306;18.024;2023-11-21T15:51:00;1.40;99.90
14301;DHT22;7234;59.306;18.024;2023-11-21T15:53:28;1.40;99.90
14301;DHT22;7234;59.306;18.024;2023-11-21T15:55:57;1.50;99.90